sensor_id;sensor_type;location;lat;lon;timestamp;P1;durP1;ratioP1;P2;durP2;ratioP2
31818;SDS011;18384;48.860;9.188;2023-10-13T00:00:33;22.08;;;7.57;;
31818;SDS011;18384;48.860;9.188;2023-10-13T00:03:02;14.10;;;7.10;;
31818;SDS011;18384;48.860;9.188;2023-10-13T00:05:30;21.73;;;9.23;;
31818;SDS011;18384;48.860;9.188;2023-10-13T00:08:01;19.62;;;7.95;;
31818;SDS011;18384;48.860;9.188;2023-10-13T00:10:28;20.42;;;7.60;;
31818;SDS011;18384;48.860;9.188;2023-10-13T00:12:55;15.23;;;7.70;;
31818;SDS011;18384;48.860;9.188;2023-10-13T00:15:43;18.60;;;7.28;;
31818;SDS011;18384;48.860;9.188;2023-10-13T00:18:23;13.88;;;7.20;;
31818;SDS011;18384;48.860;9.188;2023-10-13T00:20:59;17.00;;;8.47;;
31818;SDS011;18384;48.860;9.188;2023-10-13T00:23:37;25.25;;;7.65;;
31818;SDS011;18384;48.860;9.188;2023-10-13T00:26:04;25.83;;;7.72;;
31818;SDS011;18384;48.860;9.188;2023-10-13T00:28:34;20.65;;;7.70;;
31818;SDS011;18384;48.860;9.188;2023-10-13T00:33:36;18.35;;;8.07;;
31818;SDS011;18384;48.860;9.188;2023-10-13T00:36:03;23.55;;;9.52;;
31818;SDS011;18384;48.860;9.188;2023-10-13T00:38:33;22.08;;;7.65;;
31818;SDS011;18384;48.860;9.188;2023-10-13T00:41:00;21.12;;;8.27;;
31818;SDS011;18384;48.860;9.188;2023-10-13T00:43:46;24.60;;;8.25;;
31818;SDS011;18384;48.860;9.188;2023-10-13T00:47:34;18.92;;;7.70;;
31818;SDS011;18384;48.860;9.188;2023-10-13T00:50:13;19.48;;;7.35;;
31818;SDS011;18384;48.860;9.188;2023-10-13T00:52:40;18.83;;;7.45;;
31818;SDS011;18384;48.860;9.188;2023-10-13T00:55:12;22.87;;;9.10;;
31818;SDS011;18384;48.860;9.188;2023-10-13T00:57:39;22.10;;;7.65;;
31818;SDS011;18384;48.860;9.188;2023-10-13T01:00:06;19.62;;;6.95;;
31818;SDS011;18384;48.860;9.188;2023-10-13T01:03:54;19.30;;;6.82;;
31818;SDS011;18384;48.860;9.188;2023-10-13T01:06:24;25.15;;;7.03;;
31818;SDS011;18384;48.860;9.188;2023-10-13T01:09:02;19.80;;;6.60;;
31818;SDS011;18384;48.860;9.188;2023-10-13T01:11:44;13.95;;;6.03;;
31818;SDS011;18384;48.860;9.188;2023-10-13T01:14:18;16.58;;;6.37;;
31818;SDS011;18384;48.860;9.188;2023-10-13T01:16:46;16.65;;;6.57;;
31818;SDS011;18384;48.860;9.188;2023-10-13T01:19:17;19.45;;;6.50;;
31818;SDS011;18384;48.860;9.188;2023-10-13T01:21:49;12.85;;;6.10;;
31818;SDS011;18384;48.860;9.188;2023-10-13T01:24:22;22.23;;;7.80;;
31818;SDS011;18384;48.860;9.188;2023-10-13T01:26:50;19.85;;;6.68;;
31818;SDS011;18384;48.860;9.188;2023-10-13T01:29:19;14.73;;;7.57;;
31818;SDS011;18384;48.860;9.188;2023-10-13T01:31:51;16.87;;;6.35;;
31818;SDS011;18384;48.860;9.188;2023-10-13T01:34:18;23.55;;;6.85;;
31818;SDS011;18384;48.860;9.188;2023-10-13T01:36:54;18.52;;;7.03;;
31818;SDS011;18384;48.860;9.188;2023-10-13T01:39:21;19.80;;;7.07;;
31818;SDS011;18384;48.860;9.188;2023-10-13T01:41:56;18.87;;;6.43;;
31818;SDS011;18384;48.860;9.188;2023-10-13T01:44:26;17.45;;;6.12;;
31818;SDS011;18384;48.860;9.188;2023-10-13T01:46:56;15.55;;;5.65;;
31818;SDS011;18384;48.860;9.188;2023-10-13T01:49:31;18.52;;;6.65;;
31818;SDS011;18384;48.860;9.188;2023-10-13T01:52:10;20.23;;;6.65;;
31818;SDS011;18384;48.860;9.188;2023-10-13T01:54:40;19.10;;;6.07;;
31818;SDS011;18384;48.860;9.188;2023-10-13T01:57:13;17.10;;;5.82;;
31818;SDS011;18384;48.860;9.188;2023-10-13T01:59:43;18.42;;;6.97;;
31818;SDS011;18384;48.860;9.188;2023-10-13T02:02:13;15.23;;;6.47;;
31818;SDS011;18384;48.860;9.188;2023-10-13T02:04:40;15.60;;;6.22;;
31818;SDS011;18384;48.860;9.188;2023-10-13T02:07:17;19.65;;;6.03;;
31818;SDS011;18384;48.860;9.188;2023-10-13T02:09:45;19.42;;;6.22;;
31818;SDS011;18384;48.860;9.188;2023-10-13T02:12:12;17.35;;;6.32;;
31818;SDS011;18384;48.860;9.188;2023-10-13T02:14:40;11.52;;;5.82;;
31818;SDS011;18384;48.860;9.188;2023-10-13T02:17:07;23.25;;;6.32;;
31818;SDS011;18384;48.860;9.188;2023-10-13T02:19:41;14.70;;;5.62;;
31818;SDS011;18384;48.860;9.188;2023-10-13T02:22:12;14.68;;;5.87;;
31818;SDS011;18384;48.860;9.188;2023-10-13T02:24:57;15.32;;;5.53;;
31818;SDS011;18384;48.860;9.188;2023-10-13T02:27:27;16.52;;;5.22;;
31818;SDS011;18384;48.860;9.188;2023-10-13T02:29:53;16.77;;;5.47;;
31818;SDS011;18384;48.860;9.188;2023-10-13T02:32:24;10.50;;;4.75;;
31818;SDS011;18384;48.860;9.188;2023-10-13T02:34:51;16.08;;;5.47;;
31818;SDS011;18384;48.860;9.188;2023-10-13T02:37:18;12.98;;;4.72;;
31818;SDS011;18384;48.860;9.188;2023-10-13T02:39:45;17.48;;;5.62;;
31818;SDS011;18384;48.860;9.188;2023-10-13T02:42:11;16.58;;;5.50;;
31818;SDS011;18384;48.860;9.188;2023-10-13T02:44:49;13.18;;;4.75;;
31818;SDS011;18384;48.860;9.188;2023-10-13T02:47:16;19.52;;;6.25;;
31818;SDS011;18384;48.860;9.188;2023-10-13T02:49:44;13.85;;;5.05;;
31818;SDS011;18384;48.860;9.188;2023-10-13T02:52:12;15.63;;;5.62;;
31818;SDS011;18384;48.860;9.188;2023-10-13T02:54:40;14.73;;;4.87;;
31818;SDS011;18384;48.860;9.188;2023-10-13T02:57:16;9.32;;;4.45;;
31818;SDS011;18384;48.860;9.188;2023-10-13T02:59:43;24.67;;;4.95;;
31818;SDS011;18384;48.860;9.188;2023-10-13T03:02:13;16.75;;;4.90;;
31818;SDS011;18384;48.860;9.188;2023-10-13T03:04:46;14.25;;;4.50;;
31818;SDS011;18384;48.860;9.188;2023-10-13T03:07:13;13.40;;;5.03;;
31818;SDS011;18384;48.860;9.188;2023-10-13T03:09:48;11.65;;;3.83;;
31818;SDS011;18384;48.860;9.188;2023-10-13T03:12:20;15.50;;;4.20;;
31818;SDS011;18384;48.860;9.188;2023-10-13T03:14:48;16.25;;;5.00;;
31818;SDS011;18384;48.860;9.188;2023-10-13T03:17:20;18.87;;;6.62;;
31818;SDS011;18384;48.860;9.188;2023-10-13T03:19:58;17.70;;;4.85;;
31818;SDS011;18384;48.860;9.188;2023-10-13T03:22:26;12.23;;;4.78;;
31818;SDS011;18384;48.860;9.188;2023-10-13T03:24:56;13.88;;;4.80;;
31818;SDS011;18384;48.860;9.188;2023-10-13T03:27:30;11.00;;;4.80;;
31818;SDS011;18384;48.860;9.188;2023-10-13T03:30:59;19.23;;;5.80;;
31818;SDS011;18384;48.860;9.188;2023-10-13T03:33:26;17.90;;;4.75;;
31818;SDS011;18384;48.860;9.188;2023-10-13T03:38:19;14.85;;;5.15;;
31818;SDS011;18384;48.860;9.188;2023-10-13T03:40:49;10.57;;;4.57;;
31818;SDS011;18384;48.860;9.188;2023-10-13T03:43:23;9.25;;;4.03;;
31818;SDS011;18384;48.860;9.188;2023-10-13T03:45:50;14.50;;;5.00;;
31818;SDS011;18384;48.860;9.188;2023-10-13T03:48:37;12.52;;;4.15;;
31818;SDS011;18384;48.860;9.188;2023-10-13T03:51:17;14.13;;;4.10;;
31818;SDS011;18384;48.860;9.188;2023-10-13T03:53:43;15.10;;;5.55;;
31818;SDS011;18384;48.860;9.188;2023-10-13T03:56:22;17.25;;;5.15;;
31818;SDS011;18384;48.860;9.188;2023-10-13T03:58:53;12.23;;;4.53;;
31818;SDS011;18384;48.860;9.188;2023-10-13T04:01:25;26.23;;;4.15;;
31818;SDS011;18384;48.860;9.188;2023-10-13T04:04:00;14.60;;;5.68;;
31818;SDS011;18384;48.860;9.188;2023-10-13T04:06:35;17.80;;;6.78;;
31818;SDS011;18384;48.860;9.188;2023-10-13T04:11:39;10.93;;;5.10;;
31818;SDS011;18384;48.860;9.188;2023-10-13T04:15:39;11.68;;;4.12;;
31818;SDS011;18384;48.860;9.188;2023-10-13T04:18:27;15.60;;;4.93;;
31818;SDS011;18384;48.860;9.188;2023-10-13T04:21:12;43.40;;;17.73;;
31818;SDS011;18384;48.860;9.188;2023-10-13T04:24:08;23.45;;;8.38;;
31818;SDS011;18384;48.860;9.188;2023-10-13T04:27:09;17.58;;;6.62;;
31818;SDS011;18384;48.860;9.188;2023-10-13T04:29:54;13.50;;;5.32;;
31818;SDS011;18384;48.860;9.188;2023-10-13T04:32:41;20.25;;;5.72;;
31818;SDS011;18384;48.860;9.188;2023-10-13T04:35:12;10.05;;;4.97;;
31818;SDS011;18384;48.860;9.188;2023-10-13T04:37:47;13.80;;;4.50;;
31818;SDS011;18384;48.860;9.188;2023-10-13T04:40:24;14.27;;;4.43;;
31818;SDS011;18384;48.860;9.188;2023-10-13T04:42:51;8.15;;;4.00;;
31818;SDS011;18384;48.860;9.188;2023-10-13T04:45:29;17.58;;;4.60;;
31818;SDS011;18384;48.860;9.188;2023-10-13T04:48:15;17.20;;;5.10;;
31818;SDS011;18384;48.860;9.188;2023-10-13T04:51:14;20.70;;;7.40;;
31818;SDS011;18384;48.860;9.188;2023-10-13T04:53:59;13.65;;;5.78;;
31818;SDS011;18384;48.860;9.188;2023-10-13T04:56:28;19.35;;;6.00;;
31818;SDS011;18384;48.860;9.188;2023-10-13T05:00:46;11.60;;;5.00;;
31818;SDS011;18384;48.860;9.188;2023-10-13T05:03:42;13.05;;;4.43;;
31818;SDS011;18384;48.860;9.188;2023-10-13T05:06:26;17.52;;;4.65;;
31818;SDS011;18384;48.860;9.188;2023-10-13T05:15:46;16.77;;;5.30;;
31818;SDS011;18384;48.860;9.188;2023-10-13T05:18:32;11.38;;;4.85;;
31818;SDS011;18384;48.860;9.188;2023-10-13T05:21:17;9.00;;;4.57;;
31818;SDS011;18384;48.860;9.188;2023-10-13T05:24:02;18.60;;;5.03;;
31818;SDS011;18384;48.860;9.188;2023-10-13T05:26:51;14.27;;;4.90;;
31818;SDS011;18384;48.860;9.188;2023-10-13T05:29:40;11.40;;;4.80;;
31818;SDS011;18384;48.860;9.188;2023-10-13T05:32:30;13.35;;;5.20;;
31818;SDS011;18384;48.860;9.188;2023-10-13T05:35:15;23.52;;;6.65;;
31818;SDS011;18384;48.860;9.188;2023-10-13T05:38:00;17.10;;;7.12;;
31818;SDS011;18384;48.860;9.188;2023-10-13T05:41:19;25.08;;;6.25;;
31818;SDS011;18384;48.860;9.188;2023-10-13T05:44:04;14.25;;;6.40;;
31818;SDS011;18384;48.860;9.188;2023-10-13T05:46:48;18.15;;;5.57;;
31818;SDS011;18384;48.860;9.188;2023-10-13T05:49:15;21.60;;;7.50;;
31818;SDS011;18384;48.860;9.188;2023-10-13T05:51:53;18.15;;;7.32;;
31818;SDS011;18384;48.860;9.188;2023-10-13T05:54:33;12.57;;;5.80;;
31818;SDS011;18384;48.860;9.188;2023-10-13T05:57:18;25.23;;;6.80;;
31818;SDS011;18384;48.860;9.188;2023-10-13T06:00:02;16.33;;;6.55;;
31818;SDS011;18384;48.860;9.188;2023-10-13T06:02:47;15.85;;;5.82;;
31818;SDS011;18384;48.860;9.188;2023-10-13T06:05:32;20.20;;;5.95;;
31818;SDS011;18384;48.860;9.188;2023-10-13T06:08:17;19.77;;;7.35;;
31818;SDS011;18384;48.860;9.188;2023-10-13T06:11:01;14.25;;;5.82;;
31818;SDS011;18384;48.860;9.188;2023-10-13T06:13:47;12.68;;;5.30;;
31818;SDS011;18384;48.860;9.188;2023-10-13T06:16:34;20.05;;;6.80;;
31818;SDS011;18384;48.860;9.188;2023-10-13T06:19:19;30.45;;;6.25;;
31818;SDS011;18384;48.860;9.188;2023-10-13T06:22:04;14.05;;;5.82;;
31818;SDS011;18384;48.860;9.188;2023-10-13T06:24:48;16.33;;;6.20;;
31818;SDS011;18384;48.860;9.188;2023-10-13T06:27:32;13.30;;;6.05;;
31818;SDS011;18384;48.860;9.188;2023-10-13T06:30:16;16.23;;;5.35;;
31818;SDS011;18384;48.860;9.188;2023-10-13T06:32:43;22.85;;;6.28;;
31818;SDS011;18384;48.860;9.188;2023-10-13T06:35:11;14.90;;;5.35;;
31818;SDS011;18384;48.860;9.188;2023-10-13T06:37:49;18.98;;;5.57;;
31818;SDS011;18384;48.860;9.188;2023-10-13T06:40:16;22.62;;;5.32;;
31818;SDS011;18384;48.860;9.188;2023-10-13T06:42:59;28.38;;;4.93;;
31818;SDS011;18384;48.860;9.188;2023-10-13T06:45:47;18.80;;;4.90;;
31818;SDS011;18384;48.860;9.188;2023-10-13T06:48:27;19.70;;;6.07;;
31818;SDS011;18384;48.860;9.188;2023-10-13T06:50:58;14.32;;;4.90;;
31818;SDS011;18384;48.860;9.188;2023-10-13T06:53:30;17.80;;;4.82;;
31818;SDS011;18384;48.860;9.188;2023-10-13T06:56:06;15.77;;;4.80;;
31818;SDS011;18384;48.860;9.188;2023-10-13T06:58:34;14.98;;;4.65;;
31818;SDS011;18384;48.860;9.188;2023-10-13T07:03:32;17.23;;;4.70;;
31818;SDS011;18384;48.860;9.188;2023-10-13T07:05:58;13.13;;;4.62;;
31818;SDS011;18384;48.860;9.188;2023-10-13T07:08:24;14.18;;;4.70;;
31818;SDS011;18384;48.860;9.188;2023-10-13T07:13:31;15.57;;;5.35;;
31818;SDS011;18384;48.860;9.188;2023-10-13T07:16:02;18.23;;;4.80;;
31818;SDS011;18384;48.860;9.188;2023-10-13T07:18:38;22.85;;;5.53;;
31818;SDS011;18384;48.860;9.188;2023-10-13T07:21:20;16.10;;;4.43;;
31818;SDS011;18384;48.860;9.188;2023-10-13T07:23:56;13.17;;;5.03;;
31818;SDS011;18384;48.860;9.188;2023-10-13T07:26:36;16.27;;;5.85;;
31818;SDS011;18384;48.860;9.188;2023-10-13T07:29:11;11.90;;;5.32;;
31818;SDS011;18384;48.860;9.188;2023-10-13T07:31:37;16.12;;;5.50;;
31818;SDS011;18384;48.860;9.188;2023-10-13T07:34:08;12.82;;;4.32;;
31818;SDS011;18384;48.860;9.188;2023-10-13T07:36:55;10.68;;;4.80;;
31818;SDS011;18384;48.860;9.188;2023-10-13T07:39:25;12.90;;;5.00;;
31818;SDS011;18384;48.860;9.188;2023-10-13T07:42:05;14.05;;;4.50;;
31818;SDS011;18384;48.860;9.188;2023-10-13T07:44:42;11.27;;;4.62;;
31818;SDS011;18384;48.860;9.188;2023-10-13T07:47:11;13.77;;;4.97;;
31818;SDS011;18384;48.860;9.188;2023-10-13T07:49:39;15.43;;;4.43;;
31818;SDS011;18384;48.860;9.188;2023-10-13T07:52:07;15.40;;;4.90;;
31818;SDS011;18384;48.860;9.188;2023-10-13T07:55:36;10.93;;;4.60;;
31818;SDS011;18384;48.860;9.188;2023-10-13T07:58:04;17.20;;;4.18;;
31818;SDS011;18384;48.860;9.188;2023-10-13T08:00:32;20.62;;;5.03;;
31818;SDS011;18384;48.860;9.188;2023-10-13T08:03:19;24.65;;;5.68;;
31818;SDS011;18384;48.860;9.188;2023-10-13T08:06:05;13.13;;;4.75;;
31818;SDS011;18384;48.860;9.188;2023-10-13T08:09:04;13.52;;;5.07;;
31818;SDS011;18384;48.860;9.188;2023-10-13T08:11:33;15.05;;;4.18;;
31818;SDS011;18384;48.860;9.188;2023-10-13T08:14:03;15.68;;;5.07;;
31818;SDS011;18384;48.860;9.188;2023-10-13T08:16:39;16.65;;;5.12;;
31818;SDS011;18384;48.860;9.188;2023-10-13T08:19:25;15.15;;;4.85;;
31818;SDS011;18384;48.860;9.188;2023-10-13T08:21:53;7.93;;;3.80;;
31818;SDS011;18384;48.860;9.188;2023-10-13T08:24:39;21.40;;;4.07;;
31818;SDS011;18384;48.860;9.188;2023-10-13T08:27:26;10.85;;;4.25;;
31818;SDS011;18384;48.860;9.188;2023-10-13T08:30:16;7.97;;;3.55;;
31818;SDS011;18384;48.860;9.188;2023-10-13T08:32:51;8.90;;;3.55;;
31818;SDS011;18384;48.860;9.188;2023-10-13T08:35:22;18.20;;;5.80;;
31818;SDS011;18384;48.860;9.188;2023-10-13T08:38:00;12.65;;;4.47;;
31818;SDS011;18384;48.860;9.188;2023-10-13T08:40:43;13.98;;;4.03;;
31818;SDS011;18384;48.860;9.188;2023-10-13T08:43:54;14.48;;;3.55;;
31818;SDS011;18384;48.860;9.188;2023-10-13T08:46:30;11.43;;;3.50;;
31818;SDS011;18384;48.860;9.188;2023-10-13T08:49:17;13.80;;;4.05;;
31818;SDS011;18384;48.860;9.188;2023-10-13T08:51:48;9.60;;;3.47;;
31818;SDS011;18384;48.860;9.188;2023-10-13T08:54:16;10.88;;;3.33;;
31818;SDS011;18384;48.860;9.188;2023-10-13T08:56:59;14.73;;;3.90;;
31818;SDS011;18384;48.860;9.188;2023-10-13T08:59:58;12.27;;;3.45;;
31818;SDS011;18384;48.860;9.188;2023-10-13T09:02:54;16.05;;;3.15;;
31818;SDS011;18384;48.860;9.188;2023-10-13T09:05:39;10.98;;;3.17;;
31818;SDS011;18384;48.860;9.188;2023-10-13T09:08:09;11.27;;;3.55;;
31818;SDS011;18384;48.860;9.188;2023-10-13T09:10:35;15.52;;;3.50;;
31818;SDS011;18384;48.860;9.188;2023-10-13T09:13:14;13.15;;;3.67;;
31818;SDS011;18384;48.860;9.188;2023-10-13T09:15:45;7.85;;;3.22;;
31818;SDS011;18384;48.860;9.188;2023-10-13T09:18:27;16.90;;;3.60;;
31818;SDS011;18384;48.860;9.188;2023-10-13T09:21:11;12.63;;;3.55;;
31818;SDS011;18384;48.860;9.188;2023-10-13T09:24:11;10.65;;;3.30;;
31818;SDS011;18384;48.860;9.188;2023-10-13T09:26:47;9.05;;;3.08;;
31818;SDS011;18384;48.860;9.188;2023-10-13T09:29:18;8.68;;;2.65;;
31818;SDS011;18384;48.860;9.188;2023-10-13T09:31:57;12.68;;;4.62;;
31818;SDS011;18384;48.860;9.188;2023-10-13T09:34:27;10.45;;;2.75;;
31818;SDS011;18384;48.860;9.188;2023-10-13T09:36:57;11.10;;;2.90;;
31818;SDS011;18384;48.860;9.188;2023-10-13T09:39:28;9.85;;;3.00;;
31818;SDS011;18384;48.860;9.188;2023-10-13T09:42:33;7.87;;;2.42;;
31818;SDS011;18384;48.860;9.188;2023-10-13T09:45:01;12.48;;;2.87;;
31818;SDS011;18384;48.860;9.188;2023-10-13T09:47:29;5.87;;;2.40;;
31818;SDS011;18384;48.860;9.188;2023-10-13T09:50:02;8.05;;;2.35;;
31818;SDS011;18384;48.860;9.188;2023-10-13T09:52:38;16.05;;;3.00;;
31818;SDS011;18384;48.860;9.188;2023-10-13T09:55:12;17.45;;;2.80;;
31818;SDS011;18384;48.860;9.188;2023-10-13T09:58:01;9.35;;;2.65;;
31818;SDS011;18384;48.860;9.188;2023-10-13T10:00:47;8.27;;;2.65;;
31818;SDS011;18384;48.860;9.188;2023-10-13T10:03:23;9.45;;;2.40;;
31818;SDS011;18384;48.860;9.188;2023-10-13T10:06:04;9.93;;;2.47;;
31818;SDS011;18384;48.860;9.188;2023-10-13T10:08:32;10.35;;;2.47;;
31818;SDS011;18384;48.860;9.188;2023-10-13T10:11:00;10.82;;;2.62;;
31818;SDS011;18384;48.860;9.188;2023-10-13T10:14:02;10.18;;;3.35;;
31818;SDS011;18384;48.860;9.188;2023-10-13T10:17:21;7.35;;;2.47;;
31818;SDS011;18384;48.860;9.188;2023-10-13T10:19:48;9.77;;;2.20;;
31818;SDS011;18384;48.860;9.188;2023-10-13T10:22:28;15.05;;;3.00;;
31818;SDS011;18384;48.860;9.188;2023-10-13T10:27:30;26.95;;;3.15;;
31818;SDS011;18384;48.860;9.188;2023-10-13T10:29:58;21.67;;;2.78;;
31818;SDS011;18384;48.860;9.188;2023-10-13T10:32:38;7.20;;;2.05;;
31818;SDS011;18384;48.860;9.188;2023-10-13T10:35:06;10.45;;;3.10;;
31818;SDS011;18384;48.860;9.188;2023-10-13T10:37:39;9.88;;;2.30;;
31818;SDS011;18384;48.860;9.188;2023-10-13T10:40:15;11.77;;;2.60;;
31818;SDS011;18384;48.860;9.188;2023-10-13T10:43:06;15.45;;;4.72;;
31818;SDS011;18384;48.860;9.188;2023-10-13T10:45:35;10.52;;;2.47;;
31818;SDS011;18384;48.860;9.188;2023-10-13T10:48:02;8.95;;;3.42;;
31818;SDS011;18384;48.860;9.188;2023-10-13T10:50:42;8.93;;;2.25;;
31818;SDS011;18384;48.860;9.188;2023-10-13T10:53:20;10.30;;;2.55;;
31818;SDS011;18384;48.860;9.188;2023-10-13T10:56:12;11.82;;;2.53;;
31818;SDS011;18384;48.860;9.188;2023-10-13T10:58:52;12.18;;;2.80;;
31818;SDS011;18384;48.860;9.188;2023-10-13T11:01:25;11.02;;;2.28;;
31818;SDS011;18384;48.860;9.188;2023-10-13T11:04:50;20.05;;;2.58;;
31818;SDS011;18384;48.860;9.188;2023-10-13T11:07:25;16.70;;;2.90;;
31818;SDS011;18384;48.860;9.188;2023-10-13T11:09:53;15.52;;;2.55;;
31818;SDS011;18384;48.860;9.188;2023-10-13T11:12:31;9.00;;;2.53;;
31818;SDS011;18384;48.860;9.188;2023-10-13T11:15:00;17.27;;;2.97;;
31818;SDS011;18384;48.860;9.188;2023-10-13T11:17:40;12.00;;;2.47;;
31818;SDS011;18384;48.860;9.188;2023-10-13T11:20:16;10.70;;;2.55;;
31818;SDS011;18384;48.860;9.188;2023-10-13T11:22:50;11.07;;;2.58;;
31818;SDS011;18384;48.860;9.188;2023-10-13T11:25:27;9.88;;;2.12;;
31818;SDS011;18384;48.860;9.188;2023-10-13T11:28:09;14.75;;;2.70;;
31818;SDS011;18384;48.860;9.188;2023-10-13T11:30:46;9.13;;;3.20;;
31818;SDS011;18384;48.860;9.188;2023-10-13T11:33:16;14.77;;;2.50;;
31818;SDS011;18384;48.860;9.188;2023-10-13T11:35:45;11.63;;;2.67;;
31818;SDS011;18384;48.860;9.188;2023-10-13T11:38:21;9.02;;;2.47;;
31818;SDS011;18384;48.860;9.188;2023-10-13T11:41:14;9.85;;;2.45;;
31818;SDS011;18384;48.860;9.188;2023-10-13T11:43:45;9.27;;;3.20;;
31818;SDS011;18384;48.860;9.188;2023-10-13T11:46:37;17.10;;;2.60;;
31818;SDS011;18384;48.860;9.188;2023-10-13T11:49:23;13.38;;;2.50;;
31818;SDS011;18384;48.860;9.188;2023-10-13T11:52:07;21.65;;;3.12;;
31818;SDS011;18384;48.860;9.188;2023-10-13T11:54:42;6.97;;;2.62;;
31818;SDS011;18384;48.860;9.188;2023-10-13T11:57:09;11.52;;;2.70;;
31818;SDS011;18384;48.860;9.188;2023-10-13T11:59:35;7.25;;;2.15;;
31818;SDS011;18384;48.860;9.188;2023-10-13T12:02:06;11.77;;;2.42;;
31818;SDS011;18384;48.860;9.188;2023-10-13T12:11:21;11.15;;;2.50;;
31818;SDS011;18384;48.860;9.188;2023-10-13T12:13:56;11.15;;;3.55;;
31818;SDS011;18384;48.860;9.188;2023-10-13T12:16:23;7.28;;;2.80;;
31818;SDS011;18384;48.860;9.188;2023-10-13T12:18:59;7.75;;;2.70;;
31818;SDS011;18384;48.860;9.188;2023-10-13T12:21:26;44.13;;;4.07;;
31818;SDS011;18384;48.860;9.188;2023-10-13T12:23:54;8.50;;;2.40;;
31818;SDS011;18384;48.860;9.188;2023-10-13T12:26:20;13.52;;;2.50;;
31818;SDS011;18384;48.860;9.188;2023-10-13T12:28:58;16.77;;;2.87;;
31818;SDS011;18384;48.860;9.188;2023-10-13T12:31:32;12.98;;;2.95;;
31818;SDS011;18384;48.860;9.188;2023-10-13T12:34:04;10.57;;;2.58;;
31818;SDS011;18384;48.860;9.188;2023-10-13T12:36:39;7.72;;;2.30;;
31818;SDS011;18384;48.860;9.188;2023-10-13T12:39:18;21.50;;;3.75;;
31818;SDS011;18384;48.860;9.188;2023-10-13T12:43:15;7.70;;;2.20;;
31818;SDS011;18384;48.860;9.188;2023-10-13T12:45:59;8.20;;;2.28;;
31818;SDS011;18384;48.860;9.188;2023-10-13T12:48:44;9.00;;;2.67;;
31818;SDS011;18384;48.860;9.188;2023-10-13T12:51:29;12.27;;;2.60;;
31818;SDS011;18384;48.860;9.188;2023-10-13T12:54:12;9.13;;;2.30;;
31818;SDS011;18384;48.860;9.188;2023-10-13T12:56:39;7.18;;;2.65;;
31818;SDS011;18384;48.860;9.188;2023-10-13T12:59:09;6.85;;;2.28;;
31818;SDS011;18384;48.860;9.188;2023-10-13T13:01:39;11.70;;;3.08;;
31818;SDS011;18384;48.860;9.188;2023-10-13T13:04:09;8.18;;;2.30;;
31818;SDS011;18384;48.860;9.188;2023-10-13T13:06:45;13.95;;;2.03;;
31818;SDS011;18384;48.860;9.188;2023-10-13T13:09:16;9.13;;;2.65;;
31818;SDS011;18384;48.860;9.188;2023-10-13T13:11:53;8.38;;;2.05;;
31818;SDS011;18384;48.860;9.188;2023-10-13T13:14:23;12.27;;;2.25;;
31818;SDS011;18384;48.860;9.188;2023-10-13T13:16:58;13.13;;;2.37;;
31818;SDS011;18384;48.860;9.188;2023-10-13T13:19:33;10.25;;;2.78;;
31818;SDS011;18384;48.860;9.188;2023-10-13T13:22:04;9.95;;;2.42;;
31818;SDS011;18384;48.860;9.188;2023-10-13T13:24:37;9.25;;;2.78;;
31818;SDS011;18384;48.860;9.188;2023-10-13T13:27:11;10.43;;;2.80;;
31818;SDS011;18384;48.860;9.188;2023-10-13T13:29:39;13.50;;;2.80;;
31818;SDS011;18384;48.860;9.188;2023-10-13T13:32:09;6.15;;;1.95;;
31818;SDS011;18384;48.860;9.188;2023-10-13T13:34:49;6.43;;;2.30;;
31818;SDS011;18384;48.860;9.188;2023-10-13T13:37:33;9.18;;;2.30;;
31818;SDS011;18384;48.860;9.188;2023-10-13T13:39:59;9.32;;;2.90;;
31818;SDS011;18384;48.860;9.188;2023-10-13T13:42:45;5.53;;;1.95;;
31818;SDS011;18384;48.860;9.188;2023-10-13T13:45:12;6.65;;;1.98;;
31818;SDS011;18384;48.860;9.188;2023-10-13T13:47:49;6.28;;;3.10;;
31818;SDS011;18384;48.860;9.188;2023-10-13T13:50:19;7.93;;;2.12;;
31818;SDS011;18384;48.860;9.188;2023-10-13T13:52:54;8.85;;;2.62;;
31818;SDS011;18384;48.860;9.188;2023-10-13T13:55:22;10.35;;;2.60;;
31818;SDS011;18384;48.860;9.188;2023-10-13T13:57:49;9.70;;;2.75;;
31818;SDS011;18384;48.860;9.188;2023-10-13T14:00:16;13.80;;;2.30;;
31818;SDS011;18384;48.860;9.188;2023-10-13T14:03:02;11.12;;;2.15;;
31818;SDS011;18384;48.860;9.188;2023-10-13T14:05:30;8.23;;;2.20;;
31818;SDS011;18384;48.860;9.188;2023-10-13T14:07:56;8.30;;;1.98;;
31818;SDS011;18384;48.860;9.188;2023-10-13T14:10:23;7.35;;;2.00;;
31818;SDS011;18384;48.860;9.188;2023-10-13T14:13:01;9.25;;;2.25;;
31818;SDS011;18384;48.860;9.188;2023-10-13T14:16:49;9.65;;;2.37;;
31818;SDS011;18384;48.860;9.188;2023-10-13T14:22:34;10.70;;;2.85;;
31818;SDS011;18384;48.860;9.188;2023-10-13T14:25:02;7.78;;;2.17;;
31818;SDS011;18384;48.860;9.188;2023-10-13T14:27:34;13.73;;;2.28;;
31818;SDS011;18384;48.860;9.188;2023-10-13T14:30:01;8.75;;;3.75;;
31818;SDS011;18384;48.860;9.188;2023-10-13T14:32:28;16.87;;;2.47;;
31818;SDS011;18384;48.860;9.188;2023-10-13T14:34:54;14.48;;;2.10;;
31818;SDS011;18384;48.860;9.188;2023-10-13T14:37:21;11.48;;;1.98;;
31818;SDS011;18384;48.860;9.188;2023-10-13T14:39:57;16.37;;;2.92;;
31818;SDS011;18384;48.860;9.188;2023-10-13T14:42:25;19.80;;;3.90;;
31818;SDS011;18384;48.860;9.188;2023-10-13T14:44:52;5.97;;;2.22;;
31818;SDS011;18384;48.860;9.188;2023-10-13T14:47:22;7.85;;;2.30;;
31818;SDS011;18384;48.860;9.188;2023-10-13T14:49:52;12.10;;;2.30;;
31818;SDS011;18384;48.860;9.188;2023-10-13T14:52:20;13.48;;;2.70;;
31818;SDS011;18384;48.860;9.188;2023-10-13T14:54:47;8.27;;;3.40;;
31818;SDS011;18384;48.860;9.188;2023-10-13T14:57:20;18.65;;;2.50;;
31818;SDS011;18384;48.860;9.188;2023-10-13T14:59:50;39.17;;;22.65;;
31818;SDS011;18384;48.860;9.188;2023-10-13T15:02:18;27.55;;;11.32;;
31818;SDS011;18384;48.860;9.188;2023-10-13T15:04:45;14.48;;;2.62;;
31818;SDS011;18384;48.860;9.188;2023-10-13T15:07:15;7.85;;;2.45;;
31818;SDS011;18384;48.860;9.188;2023-10-13T15:09:43;9.52;;;3.08;;
31818;SDS011;18384;48.860;9.188;2023-10-13T15:12:10;10.00;;;2.33;;
31818;SDS011;18384;48.860;9.188;2023-10-13T15:14:39;9.13;;;2.65;;
31818;SDS011;18384;48.860;9.188;2023-10-13T15:17:09;6.20;;;2.40;;
31818;SDS011;18384;48.860;9.188;2023-10-13T15:19:36;9.60;;;2.40;;
31818;SDS011;18384;48.860;9.188;2023-10-13T15:22:04;10.75;;;2.60;;
31818;SDS011;18384;48.860;9.188;2023-10-13T15:24:34;11.40;;;2.05;;
31818;SDS011;18384;48.860;9.188;2023-10-13T15:27:10;5.93;;;2.42;;
31818;SDS011;18384;48.860;9.188;2023-10-13T15:29:36;9.80;;;2.40;;
